Time,TemperatureF,DewpointF,PressureIn,WindDirection,WindDirectionDegrees,WindSpeedMPH,WindSpeedGustMPH,Humidity,HourlyPrecipIn,Conditions,Clouds,dailyrainin,SolarRadiationWatts/m^2,SoftwareType,DateUTC
2013-02-21 00:01:00,35.1,28.3,30.28,East,96,4.6,4.6,76,0.00,RA,,0.00,0.0,WeatherDisplay:10.37,2013-02-21 00:01:00,
2013-02-21 00:06:00,35.1,28.3,30.28,East,88,5.8,5.8,76,0.00,RA,,0.00,0.0,WeatherDisplay:10.37,2013-02-21 00:06:00,
2013-02-21 00:11:00,35.1,28.0,30.28,SE,130,5.8,5.8,75,0.00,CLR,,0.00,0.0,WeatherDisplay:10.37,2013-02-21 00:11:00,
2013-02-21 00:16:00,35.1,28.0,30.29,East,94,7.0,7.0,75,0.00,CLR,,0.00,0.0,WeatherDisplay:10.37,2013-02-21 00:16:00,
2013-02-21 00:21:00,35.1,28.0,30.28,East,88,11.5,11.5,75,0.00,CLR,,0.00,0.0,WeatherDisplay:10.37,2013-02-21 00:21:00,
2013-02-21 00:26:00,35.1,28.0,30.28,East,92,4.6,4.6,75,0.00,CLR,,0.00,0.0,WeatherDisplay:10.37,2013-02-21 00:26:00,
2013-02-21 00:31:00,35.1,28.0,30.28,East,90,4.6,4.6,75,0.00,CLR,,0.00,0.0,WeatherDisplay:10.37,2013-02-21 00:31:00,
2013-02-21 00:36:00,35.1,28.0,30.28,East,92,3.5,3.5,75,0.00,CLR,,0.00,0.0,WeatherDisplay:10.37,2013-02-21 00:36:00,
2013-02-21 00:41:00,35.0,27.9,30.28,East,82,12.7,12.7,75,0.00,CLR,,0.00,0.0,WeatherDisplay:10.37,2013-02-21 00:41:00,
2013-02-21 00:46:00,35.0,27.9,30.28,SE,134,10.4,10.4,75,0.00,CLR,,0.00,0.0,WeatherDisplay:10.37,2013-02-21 00:46:00,
2013-02-21 00:51:00,35.0,27.9,30.28,ENE,74,5.8,6.8,75,0.00,CLR,,0.00,0.0,WeatherDisplay:10.37,2013-02-21 00:51:00,
2013-02-21 00:56:00,35.0,27.5,30.28,SE,144,9.2,9.2,74,0.00,CLR,,0.00,0.0,WeatherDisplay:10.37,2013-02-21 00:56:00,
2013-02-21 01:01:00,34.9,27.5,30.29,East,83,11.5,11.5,74,0.00,CLR,,0.00,0.0,WeatherDisplay:10.37,2013-02-21 01:01:00,
2013-02-21 01:06:00,34.8,27.4,30.29,ESE,107,11.5,11.5,74,0.00,CLR,,0.00,0.0,WeatherDisplay:10.37,2013-02-21 01:06:00,
2013-02-21 01:11:00,34.7,27.3,30.29,ESE,113,12.7,12.7,74,0.00,CLR,,0.00,0.0,WeatherDisplay:10.37,2013-02-21 01:11:00,
2013-02-21 01:16:00,34.5,27.1,30.29,East,94,15.0,15.0,74,0.00,CLR,,0.00,0.0,WeatherDisplay:10.37,2013-02-21 01:16:00,
2013-02-21 01:21:00,34.4,27.0,30.29,East,98,11.5,11.5,74,0.00,CLR,,0.00,0.0,WeatherDisplay:10.37,2013-02-21 01:21:00,
2013-02-21 01:26:00,34.2,26.4,30.29,SE,136,10.4,10.4,73,0.00,CLR,,0.00,0.0,WeatherDisplay:10.37,2013-02-21 01:26:00,
2013-02-21 01:31:00,34.1,26.7,30.29,ESE,103,15.0,15.0,74,0.00,CLR,,0.00,0.0,WeatherDisplay:10.37,2013-02-21 01:31:00,
2013-02-21 01:36:00,34.0,26.6,30.29,East,83,11.0,11.0,74,0.00,CLR,,0.00,0.0,WeatherDisplay:10.37,2013-02-21 01:36:00,
2013-02-21 01:41:00,34.0,26.6,30.29,ESE,106,9.2,9.2,74,0.00,CLR,,0.00,0.0,WeatherDisplay:10.37,2013-02-21 01:41:00,
2013-02-21 01:46:00,33.9,26.5,30.29,East,94,5.0,5.0,74,0.00,CLR,,0.00,0.0,WeatherDisplay:10.37,2013-02-21 01:46:00,
2013-02-21 01:51:00,33.9,26.5,30.29,East,81,10.4,10.4,74,0.00,CLR,,0.00,0.0,WeatherDisplay:10.37,2013-02-21 01:51:00,
2013-02-21 01:56:00,33.8,26.4,30.29,SSE,164,9.2,9.2,74,0.00,CLR,,0.00,0.0,WeatherDisplay:10.37,2013-02-21 01:56:00,
2013-02-21 02:01:00,33.7,26.3,30.29,ESE,103,11.0,11.0,74,0.00,CLR,,0.00,0.0,WeatherDisplay:10.37,2013-02-21 02:01:00,
2013-02-21 02:06:00,33.7,26.3,30.29,ENE,59,11.5,11.5,74,0.00,CLR,,0.00,0.0,WeatherDisplay:10.37,2013-02-21 02:06:00,
2013-02-21 02:11:00,33.6,26.2,30.29,East,88,12.7,12.7,74,0.00,CLR,,0.00,0.0,WeatherDisplay:10.37,2013-02-21 02:11:00,
2013-02-21 02:16:00,33.6,26.2,30.29,ESE,119,11.5,11.5,74,0.00,CLR,,0.00,0.0,WeatherDisplay:10.37,2013-02-21 02:16:00,
2013-02-21 02:21:00,33.5,26.1,30.29,East,92,12.7,12.7,74,0.00,CLR,,0.00,0.0,WeatherDisplay:10.37,2013-02-21 02:21:00,
2013-02-21 02:26:00,33.4,26.0,30.29,East,99,16.1,16.1,74,0.00,CLR,,0.00,0.0,WeatherDisplay:10.37,2013-02-21 02:26:00,
2013-02-21 02:31:00,33.3,25.9,30.29,ESE,115,9.2,9.2,74,0.00,CLR,,0.00,0.0,WeatherDisplay:10.37,2013-02-21 02:31:00,
2013-02-21 02:36:00,33.2,25.8,30.29,SE,125,12.7,12.7,74,0.00,CLR,,0.00,0.0,WeatherDisplay:10.37,2013-02-21 02:36:00,
2013-02-21 02:41:00,33.1,25.7,30.29,SE,129,9.2,9.2,74,0.00,CLR,,0.00,0.0,WeatherDisplay:10.37,2013-02-21 02:41:00,
2013-02-21 02:46:00,33.0,25.3,30.29,East,86,11.5,11.5,73,0.00,CLR,,0.00,0.0,WeatherDisplay:10.37,2013-02-21 02:46:00,
2013-02-21 02:51:00,32.8,25.1,30.29,East,92,10.4,10.4,73,0.00,CLR,,0.00,0.0,WeatherDisplay:10.37,2013-02-21 02:51:00,
2013-02-21 02:56:00,32.7,25.0,30.28,East,94,6.9,6.9,73,0.00,CLR,,0.00,0.0,WeatherDisplay:10.37,2013-02-21 02:56:00,
2013-02-21 03:01:00,32.5,25.1,30.28,ESE,113,5.8,5.8,74,0.00,CLR,,0.00,0.0,WeatherDisplay:10.37,2013-02-21 03:01:00,
2013-02-21 03:06:00,32.4,25.0,30.28,East,90,4.6,7.5,74,0.00,CLR,,0.00,0.0,WeatherDisplay:10.37,2013-02-21 03:06:00,
2013-02-21 03:11:00,32.3,24.9,30.28,ESE,108,6.9,7.2,74,0.00,CLR,,0.00,0.0,WeatherDisplay:10.37,2013-02-21 03:11:00,
2013-02-21 03:16:00,32.2,24.8,30.28,NE,55,11.5,11.5,74,0.00,CLR,,0.00,0.0,WeatherDisplay:10.37,2013-02-21 03:16:00,
2013-02-21 03:21:00,32.2,24.8,30.28,ESE,116,5.8,5.8,74,0.00,CLR,,0.00,0.0,WeatherDisplay:10.37,2013-02-21 03:21:00,
2013-02-21 03:26:00,32.0,24.6,30.28,ENE,65,11.5,11.5,74,0.00,CLR,,0.00,0.0,WeatherDisplay:10.37,2013-02-21 03:26:00,
2013-02-21 03:31:00,32.0,24.6,30.28,East,94,4.6,4.6,74,0.00,CLR,,0.00,0.0,WeatherDisplay:10.37,2013-02-21 03:31:00,
2013-02-21 03:36:00,31.9,24.6,30.28,ESE,115,13.8,13.8,74,0.00,CLR,,0.00,0.0,WeatherDisplay:10.37,2013-02-21 03:36:00,
2013-02-21 03:41:00,31.9,24.6,30.28,East,86,12.7,12.7,74,0.00,CLR,,0.00,0.0,WeatherDisplay:10.37,2013-02-21 03:41:00,
2013-02-21 03:46:00,31.9,24.6,30.28,East,92,10.4,10.4,74,0.00,CLR,,0.00,0.0,WeatherDisplay:10.37,2013-02-21 03:46:00,
2013-02-21 03:51:00,31.8,24.5,30.28,East,84,10.4,10.4,74,0.00,CLR,,0.00,0.0,WeatherDisplay:10.37,2013-02-21 03:51:00,
2013-02-21 03:56:00,31.8,24.5,30.28,SE,126,10.4,10.4,74,0.00,CLR,,0.00,0.0,WeatherDisplay:10.37,2013-02-21 03:56:00,
2013-02-21 04:01:00,31.8,24.8,30.28,East,96,5.8,5.8,75,0.00,CLR,,0.00,0.0,WeatherDisplay:10.37,2013-02-21 04:01:00,
2013-02-21 04:06:00,31.8,24.8,30.28,SE,130,5.0,5.0,75,0.00,CLR,,0.00,0.0,WeatherDisplay:10.37,2013-02-21 04:06:00,
2013-02-21 04:11:00,31.8,24.8,30.28,ESE,117,3.5,3.7,75,0.00,CLR,,0.00,0.0,WeatherDisplay:10.37,2013-02-21 04:11:00,
2013-02-21 04:16:00,31.8,24.8,30.28,ESE,111,6.9,6.9,75,0.00,CLR,,0.00,0.0,WeatherDisplay:10.37,2013-02-21 04:16:00,
2013-02-21 04:21:00,31.8,24.8,30.28,East,99,3.5,3.6,75,0.00,CLR,,0.00,0.0,WeatherDisplay:10.37,2013-02-21 04:21:00,
2013-02-21 04:26:00,31.9,24.9,30.28,East,96,4.6,4.6,75,0.00,CLR,,0.00,0.0,WeatherDisplay:10.37,2013-02-21 04:26:00,
2013-02-21 04:31:00,31.9,24.9,30.27,ESE,103,3.5,3.5,75,0.00,CLR,,0.00,0.0,WeatherDisplay:10.37,2013-02-21 04:31:00,
2013-02-21 04:36:00,31.9,24.9,30.28,East,99,4.6,4.6,75,0.00,CLR,,0.00,0.0,WeatherDisplay:10.37,2013-02-21 04:36:00,
2013-02-21 04:41:00,31.9,24.9,30.27,East,98,6.9,6.9,75,0.00,CLR,,0.00,0.0,WeatherDisplay:10.37,2013-02-21 04:41:00,
2013-02-21 04:46:00,31.9,24.9,30.27,ENE,61,4.6,4.7,75,0.00,CLR,,0.00,0.0,WeatherDisplay:10.37,2013-02-21 04:46:00,
2013-02-21 04:51:00,31.9,24.9,30.27,ENE,68,4.0,4.0,75,0.00,CLR,,0.00,0.0,WeatherDisplay:10.37,2013-02-21 04:51:00,
2013-02-21 04:56:00,31.9,24.9,30.28,ESE,103,11.5,11.5,75,0.00,CLR,,0.00,0.0,WeatherDisplay:10.37,2013-02-21 04:56:00,
2013-02-21 05:00:00,32.0,25.0,30.28,East,93,4.6,4.6,75,0.00,CLR,,0.00,0.0,WeatherDisplay:10.37,2013-02-21 05:00:00,
2013-02-21 05:05:00,32.0,25.0,30.28,East,86,13.8,13.8,75,0.00,CLR,,0.00,0.0,WeatherDisplay:10.37,2013-02-21 05:05:00,
2013-02-21 05:10:00,32.1,25.1,30.28,East,86,5.8,5.8,75,0.00,CLR,,0.00,0.0,WeatherDisplay:10.37,2013-02-21 05:10:00,
2013-02-21 05:15:00,32.1,25.1,30.28,East,92,5.8,5.8,75,0.00,CLR,,0.00,0.0,WeatherDisplay:10.37,2013-02-21 05:15:00,
2013-02-21 05:20:00,32.2,25.2,30.28,East,101,5.8,5.8,75,0.00,CLR,,0.00,0.0,WeatherDisplay:10.37,2013-02-21 05:20:00,
2013-02-21 05:25:00,32.3,25.3,30.28,East,87,11.5,11.5,75,0.00,CLR,,0.00,0.0,WeatherDisplay:10.37,2013-02-21 05:25:00,
2013-02-21 05:30:00,32.4,25.4,30.28,ESE,102,4.0,4.0,75,0.00,CLR,,0.00,0.0,WeatherDisplay:10.37,2013-02-21 05:30:00,
2013-02-21 05:35:00,32.5,25.5,30.28,East,92,6.9,6.9,75,0.00,CLR,,0.00,0.0,WeatherDisplay:10.37,2013-02-21 05:35:00,
2013-02-21 05:40:00,32.5,25.5,30.28,ENE,67,6.9,6.9,75,0.00,CLR,,0.00,0.0,WeatherDisplay:10.37,2013-02-21 05:40:00,
2013-02-21 05:45:00,32.6,25.6,30.28,East,90,3.5,3.8,75,0.00,CLR,,0.00,0.0,WeatherDisplay:10.37,2013-02-21 05:45:00,
2013-02-21 05:50:00,32.6,25.2,30.28,ENE,65,5.0,5.0,74,0.00,CLR,,0.00,0.0,WeatherDisplay:10.37,2013-02-21 05:50:00,
2013-02-21 05:55:00,32.6,25.2,30.28,ENE,74,5.8,5.8,74,0.00,CLR,,0.00,0.0,WeatherDisplay:10.37,2013-02-21 05:55:00,
2013-02-21 06:00:00,32.6,25.2,30.28,ENE,76,4.6,4.6,74,0.00,CLR,,0.00,0.0,WeatherDisplay:10.37,2013-02-21 06:00:00,
2013-02-21 06:05:00,32.6,25.2,30.28,SE,125,5.0,5.0,74,0.00,CLR,,0.00,0.0,WeatherDisplay:10.37,2013-02-21 06:05:00,
2013-02-21 06:10:00,32.7,25.3,30.28,East,86,11.5,11.5,74,0.00,CLR,,0.00,0.0,WeatherDisplay:10.37,2013-02-21 06:10:00,
2013-02-21 06:15:00,32.7,25.3,30.28,East,87,5.8,5.8,74,0.00,CLR,,0.00,0.0,WeatherDisplay:10.37,2013-02-21 06:15:00,
2013-02-21 06:20:00,32.8,25.4,30.28,East,80,8.1,8.1,74,0.00,CLR,,0.00,0.0,WeatherDisplay:10.37,2013-02-21 06:20:00,
2013-02-21 06:25:00,32.9,25.5,30.28,East,101,9.2,9.2,74,0.00,CLR,,0.00,0.0,WeatherDisplay:10.37,2013-02-21 06:25:00,
2013-02-21 06:30:00,32.9,25.5,30.28,ESE,106,5.8,5.8,74,0.00,CLR,,0.00,0.0,WeatherDisplay:10.37,2013-02-21 06:30:00,
2013-02-21 06:35:00,32.9,25.2,30.28,East,93,6.9,6.9,73,0.00,CLR,,0.00,0.0,WeatherDisplay:10.37,2013-02-21 06:35:00,
2013-02-21 06:40:00,33.0,25.3,30.28,ENE,76,10.4,10.4,73,0.00,CLR,,0.00,0.0,WeatherDisplay:10.37,2013-02-21 06:40:00,
2013-02-21 06:45:00,33.0,25.3,30.28,East,86,11.5,11.5,73,0.00,CLR,,0.00,0.0,WeatherDisplay:10.37,2013-02-21 06:45:00,
2013-02-21 06:50:00,33.1,25.4,30.28,East,92,5.8,5.8,73,0.00,CLR,,0.00,0.0,WeatherDisplay:10.37,2013-02-21 06:50:00,
2013-02-21 06:55:00,33.2,25.5,30.28,ENE,65,15.0,15.0,73,0.00,CLR,,0.00,0.0,WeatherDisplay:10.37,2013-02-21 06:55:00,
2013-02-21 07:00:00,33.3,25.2,30.28,ENE,71,10.4,10.4,72,0.00,OVC,,0.00,0.0,WeatherDisplay:10.37,2013-02-21 07:00:00,
2013-02-21 07:05:00,33.4,25.3,30.28,ESE,104,12.7,12.7,72,0.00,OVC,,0.00,0.0,WeatherDisplay:10.37,2013-02-21 07:05:00,
2013-02-21 07:10:00,33.5,25.4,30.29,East,88,6.9,6.9,72,0.00,OVC,,0.00,0.0,WeatherDisplay:10.37,2013-02-21 07:10:00,
2013-02-21 07:15:00,33.5,25.1,30.29,East,88,13.8,13.8,71,0.00,OVC,,0.00,5.0,WeatherDisplay:10.37,2013-02-21 07:15:00,
2013-02-21 07:20:00,33.5,25.1,30.29,East,101,12.0,12.0,71,0.00,SCT,,0.00,5.0,WeatherDisplay:10.37,2013-02-21 07:20:00,
2013-02-21 07:25:00,33.6,24.9,30.29,East,83,13.8,13.8,70,0.00,BKN,,0.00,7.0,WeatherDisplay:10.37,2013-02-21 07:25:00,
2013-02-21 07:30:00,33.6,24.9,30.29,ENE,59,12.0,12.0,70,0.00,BKN,,0.00,7.0,WeatherDisplay:10.37,2013-02-21 07:30:00,
2013-02-21 07:35:00,33.7,25.0,30.29,ENE,73,12.7,12.7,70,0.00,BKN,,0.00,9.0,WeatherDisplay:10.37,2013-02-21 07:35:00,
2013-02-21 07:40:00,33.7,25.0,30.29,SE,134,10.4,10.4,70,0.00,BKN,,0.00,11.0,WeatherDisplay:10.37,2013-02-21 07:40:00,
2013-02-21 07:45:00,33.7,25.3,30.29,East,97,10.4,10.4,71,0.00,BKN,,0.00,11.0,WeatherDisplay:10.37,2013-02-21 07:45:00,
2013-02-21 07:50:00,33.7,25.3,30.29,ESE,107,10.4,10.4,71,0.00,BKN,,0.00,14.0,WeatherDisplay:10.37,2013-02-21 07:50:00,
2013-02-21 07:55:00,33.7,25.3,30.29,East,90,8.1,8.1,71,0.00,BKN,,0.00,16.0,WeatherDisplay:10.37,2013-02-21 07:55:00,
2013-02-21 08:00:00,33.7,25.3,30.29,ESE,113,16.1,16.1,71,0.00,BKN,,0.00,21.0,WeatherDisplay:10.37,2013-02-21 08:00:00,
2013-02-21 08:05:00,33.8,25.0,30.29,East,82,11.5,11.5,70,0.00,BKN,,0.00,23.0,WeatherDisplay:10.37,2013-02-21 08:05:00,
2013-02-21 08:10:00,33.9,25.1,30.29,East,94,12.7,12.7,70,0.00,BKN,,0.00,30.0,WeatherDisplay:10.37,2013-02-21 08:10:00,
2013-02-21 08:15:00,33.9,25.1,30.29,ENE,77,10.4,10.4,70,0.00,BKN,,0.00,28.0,WeatherDisplay:10.37,2013-02-21 08:15:00,
2013-02-21 08:20:00,34.0,25.2,30.29,ENE,60,11.0,11.0,70,0.00,BKN,,0.00,30.0,WeatherDisplay:10.37,2013-02-21 08:20:00,
2013-02-21 08:25:00,34.0,25.2,30.29,ENE,66,11.5,11.5,70,0.00,BKN,,0.00,33.0,WeatherDisplay:10.37,2013-02-21 08:25:00,
2013-02-21 08:30:00,34.1,25.3,30.29,ENE,64,4.6,4.6,70,0.00,BKN,,0.00,37.0,WeatherDisplay:10.37,2013-02-21 08:30:00,
2013-02-21 08:35:00,34.1,25.3,30.29,East,93,15.0,15.0,70,0.00,BKN,,0.00,47.0,WeatherDisplay:10.37,2013-02-21 08:35:00,
2013-02-21 08:40:00,34.2,25.1,30.29,East,86,12.7,12.7,69,0.00,BKN,,0.00,56.0,WeatherDisplay:10.37,2013-02-21 08:40:00,
2013-02-21 08:45:00,34.2,24.7,30.29,East,96,6.9,6.9,68,0.00,BKN,,0.00,51.0,WeatherDisplay:10.37,2013-02-21 08:45:00,
2013-02-21 08:50:00,34.2,24.7,30.29,ESE,109,9.2,9.2,68,0.00,BKN,,0.00,53.0,WeatherDisplay:10.37,2013-02-21 08:50:00,
2013-02-21 08:55:00,34.3,25.2,30.29,East,101,4.0,4.0,69,0.00,BKN,,0.00,56.0,WeatherDisplay:10.37,2013-02-21 08:55:00,
2013-02-21 09:00:00,34.3,25.2,30.29,ENE,72,10.4,10.4,69,0.00,BKN,,0.00,65.0,WeatherDisplay:10.37,2013-02-21 09:00:00,
2013-02-21 09:05:00,34.4,25.3,30.28,SE,132,13.8,13.8,69,0.00,BKN,,0.00,72.0,WeatherDisplay:10.37,2013-02-21 09:05:00,
2013-02-21 09:10:00,34.4,25.3,30.28,ESE,112,8.1,8.1,69,0.00,BKN,,0.00,63.0,WeatherDisplay:10.37,2013-02-21 09:10:00,
2013-02-21 09:15:00,34.5,25.4,30.29,East,84,9.2,9.2,69,0.00,BKN,,0.00,51.0,WeatherDisplay:10.37,2013-02-21 09:15:00,
2013-02-21 09:20:00,34.5,25.4,30.29,ESE,104,6.9,6.9,69,0.00,BKN,,0.00,56.0,WeatherDisplay:10.37,2013-02-21 09:20:00,
2013-02-21 09:25:00,34.4,25.6,30.29,ESE,105,12.7,12.7,70,0.00,BKN,,0.00,58.0,WeatherDisplay:10.37,2013-02-21 09:25:00,
2013-02-21 09:30:00,34.3,25.5,30.28,ENE,71,15.0,15.0,70,0.00,BKN,,0.00,81.0,WeatherDisplay:10.37,2013-02-21 09:30:00,
2013-02-21 09:35:00,34.2,25.4,30.28,ENE,74,5.8,5.8,70,0.00,BKN,,0.00,90.0,WeatherDisplay:10.37,2013-02-21 09:35:00,
2013-02-21 09:40:00,34.2,25.1,30.29,East,90,12.7,12.7,69,0.00,BKN,,0.00,88.0,WeatherDisplay:10.37,2013-02-21 09:40:00,
2013-02-21 09:45:00,34.2,24.4,30.29,East,98,13.8,13.8,67,0.00,BKN,,0.00,90.0,WeatherDisplay:10.37,2013-02-21 09:45:00,
2013-02-21 09:50:00,34.2,24.0,30.29,East,98,11.5,11.5,66,0.00,BKN,,0.00,77.0,WeatherDisplay:10.37,2013-02-21 09:50:00,
2013-02-21 09:55:00,34.2,24.0,30.29,East,90,13.8,13.8,66,0.00,BKN,,0.00,91.0,WeatherDisplay:10.37,2013-02-21 09:55:00,
2013-02-21 10:00:00,34.2,24.0,30.29,ESE,103,11.5,11.5,66,0.00,BKN,,0.00,91.0,WeatherDisplay:10.37,2013-02-21 10:00:00,
2013-02-21 10:05:00,34.2,23.7,30.29,East,90,12.7,12.7,65,0.00,BKN,,0.00,84.0,WeatherDisplay:10.37,2013-02-21 10:05:00,
2013-02-21 10:10:00,34.2,23.7,30.29,East,94,10.4,10.4,65,0.00,BKN,,0.00,93.0,WeatherDisplay:10.37,2013-02-21 10:10:00,
2013-02-21 10:15:00,34.2,24.0,30.29,SSE,159,12.7,12.7,66,0.00,BKN,,0.00,111.0,WeatherDisplay:10.37,2013-02-21 10:15:00,
2013-02-21 10:20:00,34.3,24.1,30.29,East,80,13.8,13.8,66,0.00,BKN,,0.00,98.0,WeatherDisplay:10.37,2013-02-21 10:20:00,
2013-02-21 10:25:00,34.3,24.1,30.29,ENE,71,6.9,6.9,66,0.00,BKN,,0.00,100.0,WeatherDisplay:10.37,2013-02-21 10:25:00,
2013-02-21 10:30:00,34.4,24.2,30.29,SE,130,6.9,6.9,66,0.00,BKN,,0.00,102.0,WeatherDisplay:10.37,2013-02-21 10:30:00,
2013-02-21 10:35:00,34.5,24.3,30.29,East,81,8.1,8.1,66,0.00,BKN,,0.00,114.0,WeatherDisplay:10.37,2013-02-21 10:35:00,
2013-02-21 10:40:00,34.5,24.7,30.29,ENE,75,11.5,11.5,67,0.00,BKN,,0.00,98.0,WeatherDisplay:10.37,2013-02-21 10:40:00,
2013-02-21 10:45:00,34.5,24.7,30.29,East,96,10.4,10.4,67,0.00,BKN,,0.00,86.0,WeatherDisplay:10.37,2013-02-21 10:45:00,
2013-02-21 10:50:00,34.5,25.0,30.29,ENE,76,11.5,11.5,68,0.00,BKN,,0.00,91.0,WeatherDisplay:10.37,2013-02-21 10:50:00,
2013-02-21 10:55:00,34.4,24.6,30.29,East,96,11.5,11.5,67,0.00,BKN,,0.00,79.0,WeatherDisplay:10.37,2013-02-21 10:55:00,
2013-02-21 11:00:00,34.4,24.6,30.29,ESE,122,12.7,12.7,67,0.00,BKN,,0.00,76.0,WeatherDisplay:10.37,2013-02-21 11:00:00,
2013-02-21 11:05:00,34.4,24.6,30.29,East,98,10.4,10.4,67,0.00,BKN,,0.00,84.0,WeatherDisplay:10.37,2013-02-21 11:05:00,
2013-02-21 11:10:00,34.4,24.9,30.29,ESE,107,11.5,11.5,68,0.00,BKN,,0.00,90.0,WeatherDisplay:10.37,2013-02-21 11:10:00,
2013-02-21 11:15:00,34.5,24.7,30.29,ESE,105,11.5,11.5,67,0.00,BKN,,0.00,98.0,WeatherDisplay:10.37,2013-02-21 11:15:00,
2013-02-21 11:20:00,34.6,24.8,30.29,East,83,12.7,12.7,67,0.00,BKN,,0.00,98.0,WeatherDisplay:10.37,2013-02-21 11:20:00,
2013-02-21 11:25:00,34.6,24.8,30.29,East,81,12.7,12.7,67,0.00,BKN,,0.00,93.0,WeatherDisplay:10.37,2013-02-21 11:25:00,
2013-02-21 11:30:00,34.6,24.8,30.29,East,90,11.5,11.5,67,0.00,BKN,,0.00,100.0,WeatherDisplay:10.37,2013-02-21 11:30:00,
2013-02-21 11:35:00,34.5,24.7,30.29,ENE,77,19.6,19.6,67,0.00,BKN,,0.00,95.0,WeatherDisplay:10.37,2013-02-21 11:35:00,
2013-02-21 11:40:00,34.4,24.6,30.29,ESE,118,15.0,15.0,67,0.00,BKN,,0.00,107.0,WeatherDisplay:10.37,2013-02-21 11:40:00,
2013-02-21 11:45:00,34.4,24.6,30.28,East,96,10.4,10.4,67,0.00,BKN,,0.00,113.0,WeatherDisplay:10.37,2013-02-21 11:45:00,
2013-02-21 11:50:00,34.4,24.9,30.29,East,96,10.4,10.4,68,0.00,BKN,,0.00,109.0,WeatherDisplay:10.37,2013-02-21 11:50:00,
2013-02-21 11:55:00,34.5,24.7,30.28,ENE,72,6.9,6.9,67,0.00,BKN,,0.00,109.0,WeatherDisplay:10.37,2013-02-21 11:55:00,
2013-02-21 12:00:00,34.5,24.7,30.28,East,98,16.0,16.0,67,0.00,BKN,,0.00,113.0,WeatherDisplay:10.37,2013-02-21 12:00:00,
2013-02-21 12:05:00,34.6,24.8,30.28,East,87,9.0,9.0,67,0.00,BKN,,0.00,118.0,WeatherDisplay:10.37,2013-02-21 12:05:00,
2013-02-21 12:10:00,34.7,25.2,30.28,ENE,71,12.7,12.7,68,0.00,BKN,,0.00,125.0,WeatherDisplay:10.37,2013-02-21 12:10:00,
2013-02-21 12:15:00,34.6,25.1,30.27,East,82,6.9,6.9,68,0.00,BKN,,0.00,127.0,WeatherDisplay:10.37,2013-02-21 12:15:00,
2013-02-21 12:20:00,34.7,24.9,30.27,East,85,12.7,12.7,67,0.00,BKN,,0.00,134.0,WeatherDisplay:10.37,2013-02-21 12:20:00,
2013-02-21 12:25:00,34.7,24.9,30.27,ENE,65,9.2,9.2,67,0.00,BKN,,0.00,174.0,WeatherDisplay:10.37,2013-02-21 12:25:00,
2013-02-21 12:30:00,34.8,24.2,30.27,East,82,8.1,8.1,65,0.00,BKN,,0.00,188.0,WeatherDisplay:10.37,2013-02-21 12:30:00,
2013-02-21 12:35:00,35.0,24.8,30.26,ESE,119,9.0,9.0,66,0.00,BKN,,0.00,158.0,WeatherDisplay:10.37,2013-02-21 12:35:00,
2013-02-21 12:40:00,35.1,24.9,30.26,East,92,11.5,11.5,66,0.00,BKN,,0.00,149.0,WeatherDisplay:10.37,2013-02-21 12:40:00,
2013-02-21 12:45:00,35.1,24.1,30.26,East,99,12.7,12.7,64,0.00,BKN,,0.00,141.0,WeatherDisplay:10.37,2013-02-21 12:45:00,
2013-02-21 12:50:00,35.1,24.1,30.26,SE,132,8.0,8.0,64,0.00,BKN,,0.00,144.0,WeatherDisplay:10.37,2013-02-21 12:50:00,
2013-02-21 12:55:00,35.3,24.3,30.26,ENE,78,6.9,6.9,64,0.00,BKN,,0.00,141.0,WeatherDisplay:10.37,2013-02-21 12:55:00,
2013-02-21 13:00:00,35.3,24.3,30.26,ENE,78,9.2,9.2,64,0.00,BKN,,0.00,153.0,WeatherDisplay:10.37,2013-02-21 13:00:00,
2013-02-21 13:05:00,35.4,24.0,30.26,East,88,11.5,11.5,63,0.00,BKN,,0.00,149.0,WeatherDisplay:10.37,2013-02-21 13:05:00,
2013-02-21 13:10:00,35.4,24.0,30.25,East,80,11.5,11.5,63,0.00,BKN,,0.00,142.0,WeatherDisplay:10.37,2013-02-21 13:10:00,
2013-02-21 13:15:00,35.5,24.1,30.25,East,86,11.5,11.5,63,0.00,BKN,,0.00,135.0,WeatherDisplay:10.37,2013-02-21 13:15:00,
2013-02-21 13:20:00,35.4,24.0,30.25,East,86,12.0,12.0,63,0.00,BKN,,0.00,130.0,WeatherDisplay:10.37,2013-02-21 13:20:00,
2013-02-21 13:25:00,35.4,24.0,30.25,ESE,107,11.5,11.5,63,0.00,BKN,,0.00,132.0,WeatherDisplay:10.37,2013-02-21 13:25:00,
2013-02-21 13:30:00,35.3,24.0,30.25,East,88,9.0,9.0,63,0.00,BKN,,0.00,127.0,WeatherDisplay:10.37,2013-02-21 13:30:00,
2013-02-21 13:35:00,35.4,24.0,30.25,East,87,11.5,11.5,63,0.00,BKN,,0.00,121.0,WeatherDisplay:10.37,2013-02-21 13:35:00,
2013-02-21 13:40:00,35.3,24.0,30.25,ESE,110,12.7,12.7,63,0.00,BKN,,0.00,125.0,WeatherDisplay:10.37,2013-02-21 13:40:00,
2013-02-21 13:45:00,35.3,24.0,30.25,East,89,9.2,9.2,63,0.00,BKN,,0.00,137.0,WeatherDisplay:10.37,2013-02-21 13:45:00,
2013-02-21 13:50:00,35.3,24.0,30.25,ESE,107,12.7,12.7,63,0.00,BKN,,0.00,128.0,WeatherDisplay:10.37,2013-02-21 13:50:00,
2013-02-21 13:55:00,35.3,23.6,30.25,ENE,74,6.9,6.9,62,0.00,BKN,,0.00,121.0,WeatherDisplay:10.37,2013-02-21 13:55:00,
2013-02-21 14:00:00,35.3,23.6,30.25,ESE,106,11.5,11.5,62,0.00,BKN,,0.00,105.0,WeatherDisplay:10.37,2013-02-21 14:00:00,
2013-02-21 14:05:00,35.2,23.9,30.25,ESE,106,10.0,10.0,63,0.00,BKN,,0.00,100.0,WeatherDisplay:10.37,2013-02-21 14:05:00,
2013-02-21 14:10:00,35.1,23.8,30.25,East,80,11.5,11.5,63,0.00,BKN,,0.00,91.0,WeatherDisplay:10.37,2013-02-21 14:10:00,
2013-02-21 14:15:00,35.1,23.8,30.25,ESE,104,10.4,10.4,63,0.00,BKN,,0.00,91.0,WeatherDisplay:10.37,2013-02-21 14:15:00,
2013-02-21 14:20:00,35.1,23.8,30.25,ENE,72,10.4,10.4,63,0.00,BKN,,0.00,86.0,WeatherDisplay:10.37,2013-02-21 14:20:00,
2013-02-21 14:25:00,35.1,24.1,30.24,ESE,105,6.9,6.9,64,0.00,BKN,,0.00,84.0,WeatherDisplay:10.37,2013-02-21 14:25:00,
2013-02-21 14:30:00,35.1,23.8,30.24,ESE,119,15.0,15.0,63,0.00,BKN,,0.00,84.0,WeatherDisplay:10.37,2013-02-21 14:30:00,
2013-02-21 14:35:00,35.0,24.0,30.24,East,89,10.4,10.4,64,0.00,BKN,,0.00,86.0,WeatherDisplay:10.37,2013-02-21 14:35:00,
2013-02-21 14:40:00,35.0,24.0,30.24,East,84,12.0,12.0,64,0.00,BKN,,0.00,79.0,WeatherDisplay:10.37,2013-02-21 14:40:00,
2013-02-21 14:45:00,35.0,24.0,30.24,East,83,12.0,12.0,64,0.00,BKN,,0.00,69.0,WeatherDisplay:10.37,2013-02-21 14:45:00,
2013-02-21 14:50:00,35.0,24.0,30.24,NE,49,9.2,9.2,64,0.00,BKN,,0.00,79.0,WeatherDisplay:10.37,2013-02-21 14:50:00,
2013-02-21 14:55:00,35.0,24.0,30.24,East,84,6.9,6.9,64,0.00,BKN,,0.00,77.0,WeatherDisplay:10.37,2013-02-21 14:55:00,
2013-02-21 15:00:00,34.9,23.6,30.24,East,79,8.1,8.1,63,0.00,BKN,,0.00,72.0,WeatherDisplay:10.37,2013-02-21 15:00:00,
2013-02-21 15:05:00,34.9,23.6,30.24,East,84,8.1,8.1,63,0.00,BKN,,0.00,72.0,WeatherDisplay:10.37,2013-02-21 15:05:00,
2013-02-21 15:10:00,34.9,23.9,30.24,ENE,75,5.8,5.8,64,0.00,BKN,,0.00,69.0,WeatherDisplay:10.37,2013-02-21 15:10:00,
2013-02-21 15:15:00,34.9,23.6,30.24,East,79,6.9,6.9,63,0.00,BKN,,0.00,65.0,WeatherDisplay:10.37,2013-02-21 15:15:00,
2013-02-21 15:20:00,34.9,23.2,30.24,East,87,11.5,11.5,62,0.00,BKN,,0.00,69.0,WeatherDisplay:10.37,2013-02-21 15:20:00,
2013-02-21 15:25:00,34.8,23.1,30.24,East,90,13.8,13.8,62,0.00,BKN,,0.00,76.0,WeatherDisplay:10.37,2013-02-21 15:25:00,
2013-02-21 15:30:00,34.7,22.6,30.24,East,88,12.7,12.7,61,0.00,BKN,,0.00,79.0,WeatherDisplay:10.37,2013-02-21 15:30:00,
2013-02-21 15:35:00,34.7,22.6,30.24,ESE,113,8.1,8.1,61,0.00,BKN,,0.00,76.0,WeatherDisplay:10.37,2013-02-21 15:35:00,
2013-02-21 15:40:00,34.7,22.6,30.24,East,79,6.9,6.9,61,0.00,BKN,,0.00,67.0,WeatherDisplay:10.37,2013-02-21 15:40:00,
2013-02-21 15:45:00,34.7,22.6,30.24,ENE,75,11.5,11.5,61,0.00,BKN,,0.00,65.0,WeatherDisplay:10.37,2013-02-21 15:45:00,
2013-02-21 15:50:00,34.7,22.2,30.24,ESE,103,16.1,16.1,60,0.00,BKN,,0.00,62.0,WeatherDisplay:10.37,2013-02-21 15:50:00,
2013-02-21 15:55:00,34.6,22.1,30.24,East,81,9.2,9.2,60,0.00,BKN,,0.00,67.0,WeatherDisplay:10.37,2013-02-21 15:55:00,
2013-02-21 16:00:00,34.6,22.5,30.24,East,86,5.8,5.8,61,0.00,BKN,,0.00,62.0,WeatherDisplay:10.37,2013-02-21 16:00:00,
2013-02-21 16:05:00,34.6,22.1,30.24,ENE,73,5.8,5.8,60,0.00,BKN,,0.00,54.0,WeatherDisplay:10.37,2013-02-21 16:05:00,
2013-02-21 16:10:00,34.6,22.5,30.23,East,97,11.5,11.5,61,0.00,BKN,,0.00,42.0,WeatherDisplay:10.37,2013-02-21 16:10:00,
2013-02-21 16:15:00,34.5,22.4,30.23,ESE,111,6.9,6.9,61,0.00,BKN,,0.00,37.0,WeatherDisplay:10.37,2013-02-21 16:15:00,
2013-02-21 16:20:00,34.4,22.3,30.23,East,85,12.7,12.7,61,0.00,BKN,,0.00,39.0,WeatherDisplay:10.37,2013-02-21 16:20:00,
2013-02-21 16:25:00,34.3,22.2,30.23,ESE,118,12.7,12.7,61,0.00,BKN,,0.00,35.0,WeatherDisplay:10.37,2013-02-21 16:25:00,
2013-02-21 16:30:00,34.2,22.1,30.23,East,86,11.5,11.5,61,0.00,BKN,,0.00,30.0,WeatherDisplay:10.37,2013-02-21 16:30:00,
2013-02-21 16:35:00,34.2,22.5,30.23,East,98,5.8,5.8,62,0.00,BKN,,0.00,25.0,WeatherDisplay:10.37,2013-02-21 16:35:00,
2013-02-21 16:40:00,34.1,22.0,30.23,East,86,6.9,6.9,61,0.00,BKN,,0.00,21.0,WeatherDisplay:10.37,2013-02-21 16:40:00,
2013-02-21 16:45:00,34.1,22.4,30.23,ENE,73,9.2,9.2,62,0.00,BKN,,0.00,18.0,WeatherDisplay:10.37,2013-02-21 16:45:00,
2013-02-21 16:50:00,34.0,22.3,30.23,East,91,10.4,10.4,62,0.00,BKN,,0.00,16.0,WeatherDisplay:10.37,2013-02-21 16:50:00,
2013-02-21 16:55:00,33.9,22.2,30.23,East,96,5.8,5.8,62,0.00,BKN,,0.00,12.0,WeatherDisplay:10.37,2013-02-21 16:55:00,
2013-02-21 17:00:00,33.8,22.1,30.23,ESE,116,11.5,11.5,62,0.00,BKN,,0.00,11.0,WeatherDisplay:10.37,2013-02-21 17:00:00,
2013-02-21 17:05:00,33.7,22.1,30.23,East,95,13.8,13.8,62,0.00,BKN,,0.00,11.0,WeatherDisplay:10.37,2013-02-21 17:05:00,
2013-02-21 17:10:00,33.7,22.1,30.23,East,84,8.1,8.1,62,0.00,BKN,,0.00,7.0,WeatherDisplay:10.37,2013-02-21 17:10:00,
2013-02-21 17:15:00,33.7,22.1,30.23,ESE,103,9.0,9.0,62,0.00,BKN,,0.00,5.0,WeatherDisplay:10.37,2013-02-21 17:15:00,
2013-02-21 17:20:00,33.6,22.0,30.23,East,90,11.5,11.5,62,0.00,OVC,,0.00,0.0,WeatherDisplay:10.37,2013-02-21 17:20:00,
2013-02-21 17:25:00,33.6,22.0,30.23,East,87,6.9,6.9,62,0.00,OVC,,0.00,0.0,WeatherDisplay:10.37,2013-02-21 17:25:00,
2013-02-21 17:30:00,33.6,22.3,30.23,ESE,106,10.4,10.4,63,0.00,OVC,,0.00,0.0,WeatherDisplay:10.37,2013-02-21 17:30:00,
2013-02-21 17:35:00,33.6,22.3,30.23,East,80,11.5,11.5,63,0.00,OVC,,0.00,0.0,WeatherDisplay:10.37,2013-02-21 17:35:00,
2013-02-21 17:40:00,33.6,22.3,30.24,East,96,11.5,11.5,63,0.00,OVC,,0.00,0.0,WeatherDisplay:10.37,2013-02-21 17:40:00,
2013-02-21 17:45:00,33.7,22.8,30.24,East,96,6.9,6.9,64,0.00,OVC,,0.00,0.0,WeatherDisplay:10.37,2013-02-21 17:45:00,
2013-02-21 17:50:00,33.6,22.7,30.24,East,91,4.0,4.0,64,0.00,OVC,,0.00,0.0,WeatherDisplay:10.37,2013-02-21 17:50:00,
2013-02-21 17:55:00,33.6,22.7,30.23,East,95,8.1,8.1,64,0.00,OVC,,0.00,0.0,WeatherDisplay:10.37,2013-02-21 17:55:00,
2013-02-21 18:00:00,33.6,22.7,30.23,ENE,78,11.5,11.5,64,0.00,CLR,,0.00,0.0,WeatherDisplay:10.37,2013-02-21 18:00:00,
2013-02-21 18:05:00,33.6,22.7,30.23,ENE,62,6.0,6.0,64,0.00,CLR,,0.00,0.0,WeatherDisplay:10.37,2013-02-21 18:05:00,
2013-02-21 18:10:00,33.6,22.7,30.23,ENE,72,6.9,6.9,64,0.00,CLR,,0.00,0.0,WeatherDisplay:10.37,2013-02-21 18:10:00,
2013-02-21 18:15:00,33.6,23.1,30.23,ENE,75,9.0,9.0,65,0.00,CLR,,0.00,0.0,WeatherDisplay:10.37,2013-02-21 18:15:00,
2013-02-21 18:20:00,33.6,23.1,30.23,ENE,64,6.9,6.9,65,0.00,CLR,,0.00,0.0,WeatherDisplay:10.37,2013-02-21 18:20:00,
2013-02-21 18:25:00,33.5,23.4,30.23,East,92,12.7,12.7,66,0.00,CLR,,0.00,0.0,WeatherDisplay:10.37,2013-02-21 18:25:00,
2013-02-21 18:30:00,33.5,23.4,30.23,East,83,7.0,7.0,66,0.00,CLR,,0.00,0.0,WeatherDisplay:10.37,2013-02-21 18:30:00,
2013-02-21 18:35:00,33.5,23.0,30.23,East,90,12.7,12.7,65,0.00,CLR,,0.00,0.0,WeatherDisplay:10.37,2013-02-21 18:35:00,
2013-02-21 18:40:00,33.5,23.4,30.23,East,82,4.6,4.6,66,0.00,CLR,,0.00,0.0,WeatherDisplay:10.37,2013-02-21 18:40:00,
2013-02-21 18:45:00,33.5,23.4,30.23,ESE,110,11.5,11.5,66,0.00,CLR,,0.00,0.0,WeatherDisplay:10.37,2013-02-21 18:45:00,
2013-02-21 18:50:00,33.4,23.3,30.23,East,84,7.0,7.0,66,0.00,CLR,,0.00,0.0,WeatherDisplay:10.37,2013-02-21 18:50:00,
2013-02-21 18:55:00,33.4,23.3,30.23,East,83,9.2,9.2,66,0.00,CLR,,0.00,0.0,WeatherDisplay:10.37,2013-02-21 18:55:00,
2013-02-21 19:00:00,33.4,23.3,30.23,ENE,74,6.9,6.9,66,0.00,CLR,,0.00,0.0,WeatherDisplay:10.37,2013-02-21 19:00:00,
2013-02-21 19:05:00,33.4,23.3,30.23,East,80,4.0,4.0,66,0.00,CLR,,0.00,0.0,WeatherDisplay:10.37,2013-02-21 19:05:00,
2013-02-21 19:10:00,33.4,23.6,30.23,East,99,4.6,4.6,67,0.00,CLR,,0.00,0.0,WeatherDisplay:10.37,2013-02-21 19:10:00,
2013-02-21 19:15:00,33.3,23.5,30.23,ENE,68,5.0,5.0,67,0.00,CLR,,0.00,0.0,WeatherDisplay:10.37,2013-02-21 19:15:00,
2013-02-21 19:20:00,33.3,23.2,30.23,East,98,11.5,11.5,66,0.00,CLR,,0.00,0.0,WeatherDisplay:10.37,2013-02-21 19:20:00,
2013-02-21 19:25:00,33.3,23.2,30.23,East,82,8.1,8.1,66,0.00,CLR,,0.00,0.0,WeatherDisplay:10.37,2013-02-21 19:25:00,
2013-02-21 19:30:00,33.2,23.1,30.23,ENE,67,9.2,9.2,66,0.00,CLR,,0.00,0.0,WeatherDisplay:10.37,2013-02-21 19:30:00,
2013-02-21 19:35:00,33.2,23.1,30.23,East,98,18.4,18.4,66,0.00,CLR,,0.00,0.0,WeatherDisplay:10.37,2013-02-21 19:35:00,
2013-02-21 19:40:00,33.1,22.6,30.23,ENE,65,12.7,12.7,65,0.00,CLR,,0.00,0.0,WeatherDisplay:10.37,2013-02-21 19:40:00,
2013-02-21 19:45:00,33.1,22.6,30.23,ENE,76,6.9,6.9,65,0.00,CLR,,0.00,0.0,WeatherDisplay:10.37,2013-02-21 19:45:00,
2013-02-21 19:50:00,33.0,22.5,30.23,East,80,5.8,5.8,65,0.00,CLR,,0.00,0.0,WeatherDisplay:10.37,2013-02-21 19:50:00,
2013-02-21 19:55:00,33.0,22.5,30.23,East,82,13.8,13.8,65,0.00,CLR,,0.00,0.0,WeatherDisplay:10.37,2013-02-21 19:55:00,
2013-02-21 20:00:00,32.9,22.4,30.23,East,87,11.5,11.5,65,0.00,CLR,,0.00,0.0,WeatherDisplay:10.37,2013-02-21 20:00:00,
2013-02-21 20:06:00,32.9,22.4,30.23,ENE,75,11.5,11.5,65,0.00,CLR,,0.00,0.0,WeatherDisplay:10.37,2013-02-21 20:06:00,
2013-02-21 20:11:00,32.9,22.8,30.22,ENE,65,4.6,5.0,66,0.00,CLR,,0.00,0.0,WeatherDisplay:10.37,2013-02-21 20:11:00,
2013-02-21 20:16:00,32.8,22.7,30.23,East,80,12.7,12.7,66,0.00,CLR,,0.00,0.0,WeatherDisplay:10.37,2013-02-21 20:16:00,
2013-02-21 20:21:00,32.7,22.2,30.22,East,82,11.5,11.5,65,0.00,CLR,,0.00,0.0,WeatherDisplay:10.37,2013-02-21 20:21:00,
2013-02-21 20:26:00,32.7,22.2,30.22,ENE,78,11.5,11.5,65,0.00,CLR,,0.00,0.0,WeatherDisplay:10.37,2013-02-21 20:26:00,
2013-02-21 20:31:00,32.6,22.1,30.22,East,100,12.7,12.7,65,0.00,CLR,,0.00,0.0,WeatherDisplay:10.37,2013-02-21 20:31:00,
2013-02-21 20:36:00,32.6,21.8,30.22,ENE,67,11.5,11.5,64,0.00,CLR,,0.00,0.0,WeatherDisplay:10.37,2013-02-21 20:36:00,
2013-02-21 20:41:00,32.6,21.8,30.22,East,95,12.0,12.0,64,0.00,CLR,,0.00,0.0,WeatherDisplay:10.37,2013-02-21 20:41:00,
2013-02-21 20:46:00,32.5,21.7,30.22,East,86,11.0,11.0,64,0.00,CLR,,0.00,0.0,WeatherDisplay:10.37,2013-02-21 20:46:00,
2013-02-21 20:51:00,32.5,21.7,30.22,East,87,6.9,6.9,64,0.00,CLR,,0.00,0.0,WeatherDisplay:10.37,2013-02-21 20:51:00,
2013-02-21 20:56:00,32.5,21.7,30.22,ENE,78,12.7,12.7,64,0.00,CLR,,0.00,0.0,WeatherDisplay:10.37,2013-02-21 20:56:00,
2013-02-21 21:01:00,32.5,21.7,30.22,NE,55,10.4,10.4,64,0.00,CLR,,0.00,0.0,WeatherDisplay:10.37,2013-02-21 21:01:00,
2013-02-21 21:06:00,32.5,22.0,30.22,ENE,69,10.4,10.4,65,0.00,CLR,,0.00,0.0,WeatherDisplay:10.37,2013-02-21 21:06:00,
2013-02-21 21:11:00,32.5,22.0,30.22,ENE,74,10.4,10.4,65,0.00,CLR,,0.00,0.0,WeatherDisplay:10.37,2013-02-21 21:11:00,
2013-02-21 21:16:00,32.5,22.4,30.22,ENE,61,4.6,4.6,66,0.00,CLR,,0.00,0.0,WeatherDisplay:10.37,2013-02-21 21:16:00,
2013-02-21 21:21:00,32.5,22.4,30.22,ENE,71,10.4,10.4,66,0.00,CLR,,0.00,0.0,WeatherDisplay:10.37,2013-02-21 21:21:00,
2013-02-21 21:26:00,32.5,22.4,30.22,ENE,71,10.4,10.4,66,0.00,CLR,,0.00,0.0,WeatherDisplay:10.37,2013-02-21 21:26:00,
2013-02-21 21:31:00,32.5,22.4,30.22,ENE,74,9.2,9.2,66,0.00,CLR,,0.00,0.0,WeatherDisplay:10.37,2013-02-21 21:31:00,
2013-02-21 21:36:00,32.5,22.4,30.22,ENE,60,9.2,9.2,66,0.00,CLR,,0.00,0.0,WeatherDisplay:10.37,2013-02-21 21:36:00,
2013-02-21 21:41:00,32.5,22.4,30.22,East,79,11.5,11.5,66,0.00,CLR,,0.00,0.0,WeatherDisplay:10.37,2013-02-21 21:41:00,
2013-02-21 21:46:00,32.5,22.4,30.22,East,86,6.9,6.9,66,0.00,CLR,,0.00,0.0,WeatherDisplay:10.37,2013-02-21 21:46:00,
2013-02-21 21:51:00,32.4,22.3,30.22,ENE,72,6.9,6.9,66,0.00,CLR,,0.00,0.0,WeatherDisplay:10.37,2013-02-21 21:51:00,
2013-02-21 21:56:00,32.4,22.3,30.22,East,82,6.0,6.0,66,0.00,CLR,,0.00,0.0,WeatherDisplay:10.37,2013-02-21 21:56:00,
2013-02-21 22:01:00,32.4,22.7,30.22,NE,46,10.4,10.4,67,0.00,CLR,,0.00,0.0,WeatherDisplay:10.37,2013-02-21 22:01:00,
2013-02-21 22:06:00,32.4,22.7,30.22,East,83,3.5,3.5,67,0.00,CLR,,0.00,0.0,WeatherDisplay:10.37,2013-02-21 22:06:00,
2013-02-21 22:11:00,32.4,22.7,30.22,ENE,57,10.4,10.4,67,0.00,CLR,,0.00,0.0,WeatherDisplay:10.37,2013-02-21 22:11:00,
2013-02-21 22:16:00,32.3,22.6,30.21,ENE,78,3.5,3.5,67,0.00,CLR,,0.00,0.0,WeatherDisplay:10.37,2013-02-21 22:16:00,
2013-02-21 22:21:00,32.4,22.7,30.21,North,10,4.6,4.6,67,0.00,CLR,,0.00,0.0,WeatherDisplay:10.37,2013-02-21 22:21:00,
2013-02-21 22:26:00,32.4,22.7,30.21,ENE,77,8.1,8.1,67,0.00,CLR,,0.00,0.0,WeatherDisplay:10.37,2013-02-21 22:26:00,
2013-02-21 22:31:00,32.4,22.3,30.21,East,79,8.1,8.1,66,0.00,CLR,,0.00,0.0,WeatherDisplay:10.37,2013-02-21 22:31:00,
2013-02-21 22:36:00,32.4,22.3,30.21,East,98,4.6,4.6,66,0.00,CLR,,0.00,0.0,WeatherDisplay:10.37,2013-02-21 22:36:00,
2013-02-21 22:41:00,32.4,22.3,30.21,NE,53,11.5,11.5,66,0.00,CLR,,0.00,0.0,WeatherDisplay:10.37,2013-02-21 22:41:00,
2013-02-21 22:46:00,32.4,22.7,30.21,ENE,68,6.9,6.9,67,0.00,CLR,,0.00,0.0,WeatherDisplay:10.37,2013-02-21 22:46:00,
2013-02-21 22:51:00,32.4,22.7,30.21,ENE,65,2.0,2.0,67,0.00,CLR,,0.00,0.0,WeatherDisplay:10.37,2013-02-21 22:51:00,
2013-02-21 22:56:00,32.4,22.7,30.21,ENE,67,5.8,5.8,67,0.00,CLR,,0.00,0.0,WeatherDisplay:10.37,2013-02-21 22:56:00,
2013-02-21 23:01:00,32.4,22.7,30.21,East,84,6.9,6.9,67,0.00,CLR,,0.00,0.0,WeatherDisplay:10.37,2013-02-21 23:01:00,
2013-02-21 23:06:00,32.4,22.7,30.21,ENE,71,5.8,5.8,67,0.00,CLR,,0.00,0.0,WeatherDisplay:10.37,2013-02-21 23:06:00,
2013-02-21 23:11:00,32.4,22.3,30.21,East,82,5.8,5.9,66,0.00,CLR,,0.00,0.0,WeatherDisplay:10.37,2013-02-21 23:11:00,
2013-02-21 23:16:00,32.4,22.7,30.20,East,80,6.9,6.9,67,0.00,CLR,,0.00,0.0,WeatherDisplay:10.37,2013-02-21 23:16:00,
2013-02-21 23:21:00,32.4,22.3,30.20,ENE,65,5.8,5.8,66,0.00,CLR,,0.00,0.0,WeatherDisplay:10.37,2013-02-21 23:21:00,
2013-02-21 23:26:00,32.3,22.2,30.20,ENE,58,5.8,5.8,66,0.00,CLR,,0.00,0.0,WeatherDisplay:10.37,2013-02-21 23:26:00,
2013-02-21 23:31:00,32.3,22.2,30.20,ENE,72,6.0,6.0,66,0.00,CLR,,0.00,0.0,WeatherDisplay:10.37,2013-02-21 23:31:00,
2013-02-21 23:36:00,32.3,22.2,30.20,East,84,3.5,3.5,66,0.00,CLR,,0.00,0.0,WeatherDisplay:10.37,2013-02-21 23:36:00,
2013-02-21 23:41:00,32.3,22.2,30.20,ENE,64,3.5,3.5,66,0.00,CLR,,0.00,0.0,WeatherDisplay:10.37,2013-02-21 23:41:00,
2013-02-21 23:46:00,32.3,22.2,30.20,East,80,3.5,3.5,66,0.00,CLR,,0.00,0.0,WeatherDisplay:10.37,2013-02-21 23:46:00,
2013-02-21 23:51:00,32.3,22.2,30.20,ENE,73,5.8,5.8,66,0.00,CLR,,0.00,0.0,WeatherDisplay:10.37,2013-02-21 23:51:00,
2013-02-21 23:56:00,32.3,22.2,30.20,East,84,12.7,12.7,66,0.00,CLR,,0.00,0.0,WeatherDisplay:10.37,2013-02-21 23:56:00,